This is the latest recevied weather packets stored in our database for station/object KF0JHJ. If no packets are shown the sender has not sent any weather packets the latest 1 day(s).
| Time | Temp. | Humidity | Pressure | Rain* | Wind** | Luminosity | Snow |
|---|---|---|---|---|---|---|---|
| 1836274743 | 16.67° C | 99% | 1012.3 hPa | - | 0 m/s | 0 W/m² | - |
| 1836274441 | 16.67° C | 99% | 1012.3 hPa | - | 0 m/s | 0 W/m² | - |
| 1836274295 | 16.67° C | 99% | 1012.4 hPa | - | 0 m/s | 0 W/m² | - |
| 1836274140 | 16.67° C | 99% | 1012.3 hPa | - | 0 m/s | 0 W/m² | - |
| 1778058860 | 0.56° C | 77% | 1012.6 hPa | - | 0 m/s | 0 W/m² | - |
| 1778058557 | 0° C | 79% | 1012.7 hPa | - | 0.45 m/s, 57° | 0 W/m² | - |
| 1778058255 | -0.56° C | 81% | 1012.6 hPa | - | 0 m/s | 0 W/m² | - |
| 1778057951 | -0.56° C | 80% | 1012.7 hPa | - | 0 m/s | 0 W/m² | - |
| 1778057648 | -0.56° C | 81% | 1012.6 hPa | - | 0 m/s | 0 W/m² | - |
| 1778057344 | -1.11° C | 80% | 1012.7 hPa | - | 0 m/s | 0 W/m² | - |
| 1778057041 | -1.11° C | 80% | 1012.6 hPa | - | 0 m/s | 0 W/m² | - |
| 1778056737 | -1.11° C | 80% | 1012.4 hPa | - | 0 m/s | 0 W/m² | - |
| 1778056435 | -1.11° C | 80% | 1012.3 hPa | - | 0 m/s | 0 W/m² | - |
| 1778056132 | -1.11° C | 80% | 1012.3 hPa | - | 0 m/s | 0 W/m² | - |
| 1778055829 | -1.11° C | 79% | 1012.3 hPa | - | 0 m/s | 0 W/m² | - |
| 1778055525 | -1.11° C | 79% | 1012.3 hPa | - | 0 m/s | 0 W/m² | - |
| 1778055224 | -1.11° C | 80% | 1012.1 hPa | - | 0 m/s | 0 W/m² | - |
| 1778054921 | -1.11° C | 78% | 1012.4 hPa | - | 0 m/s | 0 W/m² | - |
| 1778054618 | -1.11° C | 78% | 1012.4 hPa | - | 0 m/s | 0 W/m² | - |
| 1778054316 | -0.56° C | 78% | 1012.4 hPa | - | 0.45 m/s, 96° | 0 W/m² | - |
| 1778054012 | -1.11° C | 78% | 1012.5 hPa | - | 0 m/s | 0 W/m² | - |
| 1778053709 | -0.56° C | 77% | 1012.6 hPa | - | 0 m/s | 0 W/m² | - |
| 1778053406 | -0.56° C | 77% | 1012.6 hPa | - | 0 m/s | 0 W/m² | - |
| 1778053103 | -0.56° C | 77% | 1012.3 hPa | - | 0 m/s | 0 W/m² | - |
| 1778052801 | -0.56° C | 77% | 1012.3 hPa | - | 0 m/s | 0 W/m² | - |
* Rain since midnight (hover to see other rain measurements)
** Current wind speed in m/s (hover to see current wind gust speed)